sensor_id;sensor_type;location;lat;lon;timestamp;temperature;humidity
47773;DHT22;33534;51.028;13.716;2024-03-02T00:00:08;19.20;77.80
47773;DHT22;33534;51.028;13.716;2024-03-02T00:02:42;19.20;77.60
47773;DHT22;33534;51.028;13.716;2024-03-02T00:05:08;19.20;77.60
47773;DHT22;33534;51.028;13.716;2024-03-02T00:07:36;19.20;77.80
47773;DHT22;33534;51.028;13.716;2024-03-02T00:10:08;19.20;77.80
47773;DHT22;33534;51.028;13.716;2024-03-02T00:12:36;19.20;77.70
47773;DHT22;33534;51.028;13.716;2024-03-02T00:15:05;19.20;77.90
47773;DHT22;33534;51.028;13.716;2024-03-02T00:17:32;19.20;78.00
47773;DHT22;33534;51.028;13.716;2024-03-02T00:19:58;19.20;77.90
47773;DHT22;33534;51.028;13.716;2024-03-02T00:22:23;19.30;77.70
47773;DHT22;33534;51.028;13.716;2024-03-02T00:24:49;19.30;77.80
47773;DHT22;33534;51.028;13.716;2024-03-02T00:27:15;19.30;77.60
47773;DHT22;33534;51.028;13.716;2024-03-02T00:29:43;19.30;77.60
47773;DHT22;33534;51.028;13.716;2024-03-02T00:32:13;19.30;77.50
47773;DHT22;33534;51.028;13.716;2024-03-02T00:34:41;19.20;77.40
47773;DHT22;33534;51.028;13.716;2024-03-02T00:37:06;19.30;77.50
47773;DHT22;33534;51.028;13.716;2024-03-02T00:39:33;19.30;77.30
47773;DHT22;33534;51.028;13.716;2024-03-02T00:41:58;19.30;77.40
47773;DHT22;33534;51.028;13.716;2024-03-02T00:44:25;19.30;77.40
47773;DHT22;33534;51.028;13.716;2024-03-02T00:46:59;19.30;77.30
47773;DHT22;33534;51.028;13.716;2024-03-02T00:49:26;19.30;77.20
47773;DHT22;33534;51.028;13.716;2024-03-02T00:51:54;19.30;77.30
47773;DHT22;33534;51.028;13.716;2024-03-02T00:54:21;19.30;77.40
47773;DHT22;33534;51.028;13.716;2024-03-02T00:56:49;19.30;77.30
47773;DHT22;33534;51.028;13.716;2024-03-02T00:59:15;19.30;77.40
47773;DHT22;33534;51.028;13.716;2024-03-02T01:01:40;19.30;77.50
47773;DHT22;33534;51.028;13.716;2024-03-02T01:04:07;19.30;77.60
47773;DHT22;33534;51.028;13.716;2024-03-02T01:06:33;19.30;77.70
47773;DHT22;33534;51.028;13.716;2024-03-02T01:08:59;19.30;77.90
47773;DHT22;33534;51.028;13.716;2024-03-02T01:11:25;19.30;77.90
47773;DHT22;33534;51.028;13.716;2024-03-02T01:13:51;19.30;78.00
47773;DHT22;33534;51.028;13.716;2024-03-02T01:16:17;19.30;78.00
47773;DHT22;33534;51.028;13.716;2024-03-02T01:18:43;19.30;78.10
47773;DHT22;33534;51.028;13.716;2024-03-02T01:21:09;19.30;78.30
47773;DHT22;33534;51.028;13.716;2024-03-02T01:23:34;19.30;78.50
47773;DHT22;33534;51.028;13.716;2024-03-02T01:26:00;19.20;78.60
47773;DHT22;33534;51.028;13.716;2024-03-02T01:28:26;19.30;78.70
47773;DHT22;33534;51.028;13.716;2024-03-02T01:30:51;19.30;78.90
47773;DHT22;33534;51.028;13.716;2024-03-02T01:33:18;19.30;78.90
47773;DHT22;33534;51.028;13.716;2024-03-02T01:35:44;19.30;78.90
47773;DHT22;33534;51.028;13.716;2024-03-02T01:38:10;19.30;79.00
47773;DHT22;33534;51.028;13.716;2024-03-02T01:40:37;19.30;79.20
47773;DHT22;33534;51.028;13.716;2024-03-02T01:43:04;19.30;79.10
47773;DHT22;33534;51.028;13.716;2024-03-02T01:45:30;19.30;79.00
47773;DHT22;33534;51.028;13.716;2024-03-02T01:47:58;19.30;78.80
47773;DHT22;33534;51.028;13.716;2024-03-02T01:50:28;19.30;78.50
47773;DHT22;33534;51.028;13.716;2024-03-02T01:52:55;19.30;78.60
47773;DHT22;33534;51.028;13.716;2024-03-02T01:55:21;19.30;78.90
47773;DHT22;33534;51.028;13.716;2024-03-02T01:57:47;19.30;78.90
47773;DHT22;33534;51.028;13.716;2024-03-02T02:00:14;19.30;78.70
47773;DHT22;33534;51.028;13.716;2024-03-02T02:02:40;19.30;78.80
47773;DHT22;33534;51.028;13.716;2024-03-02T02:05:06;19.30;79.00
47773;DHT22;33534;51.028;13.716;2024-03-02T02:07:31;19.40;79.00
47773;DHT22;33534;51.028;13.716;2024-03-02T02:09:57;19.30;78.90
47773;DHT22;33534;51.028;13.716;2024-03-02T02:12:23;19.30;78.80
47773;DHT22;33534;51.028;13.716;2024-03-02T02:14:49;19.30;78.90
47773;DHT22;33534;51.028;13.716;2024-03-02T02:17:16;19.30;78.90
47773;DHT22;33534;51.028;13.716;2024-03-02T02:19:42;19.30;78.90
47773;DHT22;33534;51.028;13.716;2024-03-02T02:22:11;19.30;79.00
47773;DHT22;33534;51.028;13.716;2024-03-02T02:24:40;19.40;79.10
47773;DHT22;33534;51.028;13.716;2024-03-02T02:27:06;19.30;79.20
47773;DHT22;33534;51.028;13.716;2024-03-02T02:29:32;19.30;79.10
47773;DHT22;33534;51.028;13.716;2024-03-02T02:31:57;19.40;79.10
47773;DHT22;33534;51.028;13.716;2024-03-02T02:34:23;19.30;79.20
47773;DHT22;33534;51.028;13.716;2024-03-02T02:36:49;19.30;79.20
47773;DHT22;33534;51.028;13.716;2024-03-02T02:39:16;19.30;79.20
47773;DHT22;33534;51.028;13.716;2024-03-02T02:41:43;19.30;79.30
47773;DHT22;33534;51.028;13.716;2024-03-02T02:44:08;19.30;79.40
47773;DHT22;33534;51.028;13.716;2024-03-02T02:46:36;19.30;79.40
47773;DHT22;33534;51.028;13.716;2024-03-02T02:49:03;19.30;79.50
47773;DHT22;33534;51.028;13.716;2024-03-02T02:51:29;19.30;79.50
47773;DHT22;33534;51.028;13.716;2024-03-02T02:53:54;19.30;79.50
47773;DHT22;33534;51.028;13.716;2024-03-02T02:56:20;19.30;79.60
47773;DHT22;33534;51.028;13.716;2024-03-02T02:58:45;19.30;79.70
47773;DHT22;33534;51.028;13.716;2024-03-02T03:01:11;19.30;79.80
47773;DHT22;33534;51.028;13.716;2024-03-02T03:03:37;19.30;79.80
47773;DHT22;33534;51.028;13.716;2024-03-02T03:06:03;19.30;79.80
47773;DHT22;33534;51.028;13.716;2024-03-02T03:08:28;19.30;79.80
47773;DHT22;33534;51.028;13.716;2024-03-02T03:10:54;19.30;79.80
47773;DHT22;33534;51.028;13.716;2024-03-02T03:13:20;19.20;79.90
47773;DHT22;33534;51.028;13.716;2024-03-02T03:15:45;19.30;79.90
47773;DHT22;33534;51.028;13.716;2024-03-02T03:18:11;19.30;79.80
47773;DHT22;33534;51.028;13.716;2024-03-02T03:20:37;19.20;79.90
47773;DHT22;33534;51.028;13.716;2024-03-02T03:23:03;19.30;79.90
47773;DHT22;33534;51.028;13.716;2024-03-02T03:25:29;19.30;79.90
47773;DHT22;33534;51.028;13.716;2024-03-02T03:27:55;19.30;79.90
47773;DHT22;33534;51.028;13.716;2024-03-02T03:30:21;19.30;79.90
47773;DHT22;33534;51.028;13.716;2024-03-02T03:32:46;19.30;79.90
47773;DHT22;33534;51.028;13.716;2024-03-02T03:35:13;19.30;79.90
47773;DHT22;33534;51.028;13.716;2024-03-02T03:37:40;19.30;79.90
47773;DHT22;33534;51.028;13.716;2024-03-02T03:40:06;19.30;80.00
47773;DHT22;33534;51.028;13.716;2024-03-02T03:42:39;19.30;80.00
47773;DHT22;33534;51.028;13.716;2024-03-02T03:45:05;19.30;79.90
47773;DHT22;33534;51.028;13.716;2024-03-02T03:47:32;19.30;79.80
47773;DHT22;33534;51.028;13.716;2024-03-02T03:49:58;19.30;79.90
47773;DHT22;33534;51.028;13.716;2024-03-02T03:52:24;19.30;79.80
47773;DHT22;33534;51.028;13.716;2024-03-02T03:54:49;19.30;79.90
47773;DHT22;33534;51.028;13.716;2024-03-02T03:57:15;19.30;79.90
47773;DHT22;33534;51.028;13.716;2024-03-02T03:59:41;19.30;79.90
47773;DHT22;33534;51.028;13.716;2024-03-02T04:02:07;19.30;80.00
47773;DHT22;33534;51.028;13.716;2024-03-02T04:04:33;19.30;80.00
47773;DHT22;33534;51.028;13.716;2024-03-02T04:06:59;19.30;80.10
47773;DHT22;33534;51.028;13.716;2024-03-02T04:09:25;19.30;80.10
47773;DHT22;33534;51.028;13.716;2024-03-02T04:11:51;19.30;80.20
47773;DHT22;33534;51.028;13.716;2024-03-02T04:14:17;19.30;80.20
47773;DHT22;33534;51.028;13.716;2024-03-02T04:16:42;19.30;80.30
47773;DHT22;33534;51.028;13.716;2024-03-02T04:19:08;19.30;80.40
47773;DHT22;33534;51.028;13.716;2024-03-02T04:21:34;19.30;80.50
47773;DHT22;33534;51.028;13.716;2024-03-02T04:23:59;19.30;80.50
47773;DHT22;33534;51.028;13.716;2024-03-02T04:26:26;19.30;80.60
47773;DHT22;33534;51.028;13.716;2024-03-02T04:28:52;19.30;80.60
47773;DHT22;33534;51.028;13.716;2024-03-02T04:31:18;19.30;80.70
47773;DHT22;33534;51.028;13.716;2024-03-02T04:33:43;19.30;80.80
47773;DHT22;33534;51.028;13.716;2024-03-02T04:36:09;19.30;80.80
47773;DHT22;33534;51.028;13.716;2024-03-02T04:38:35;19.30;80.70
47773;DHT22;33534;51.028;13.716;2024-03-02T04:41:01;19.30;80.70
47773;DHT22;33534;51.028;13.716;2024-03-02T04:43:27;19.30;80.80
47773;DHT22;33534;51.028;13.716;2024-03-02T04:45:52;19.30;80.70
47773;DHT22;33534;51.028;13.716;2024-03-02T04:48:18;19.30;80.70
47773;DHT22;33534;51.028;13.716;2024-03-02T04:50:44;19.30;80.70
47773;DHT22;33534;51.028;13.716;2024-03-02T04:53:10;19.30;80.70
47773;DHT22;33534;51.028;13.716;2024-03-02T04:55:36;19.30;80.80
47773;DHT22;33534;51.028;13.716;2024-03-02T04:58:04;19.30;80.70
47773;DHT22;33534;51.028;13.716;2024-03-02T05:00:30;19.30;80.70
47773;DHT22;33534;51.028;13.716;2024-03-02T05:02:56;19.30;80.80
47773;DHT22;33534;51.028;13.716;2024-03-02T05:05:21;19.30;80.80
47773;DHT22;33534;51.028;13.716;2024-03-02T05:07:47;19.30;80.80
47773;DHT22;33534;51.028;13.716;2024-03-02T05:10:12;19.30;80.80
47773;DHT22;33534;51.028;13.716;2024-03-02T05:12:39;19.40;80.80
47773;DHT22;33534;51.028;13.716;2024-03-02T05:15:08;19.40;80.80
47773;DHT22;33534;51.028;13.716;2024-03-02T05:17:35;19.40;80.80
47773;DHT22;33534;51.028;13.716;2024-03-02T05:20:01;19.40;80.70
47773;DHT22;33534;51.028;13.716;2024-03-02T05:22:27;19.40;80.80
47773;DHT22;33534;51.028;13.716;2024-03-02T05:24:53;19.40;80.80
47773;DHT22;33534;51.028;13.716;2024-03-02T05:27:18;19.40;80.80
47773;DHT22;33534;51.028;13.716;2024-03-02T05:29:44;19.40;80.80
47773;DHT22;33534;51.028;13.716;2024-03-02T05:32:09;19.40;81.00
47773;DHT22;33534;51.028;13.716;2024-03-02T05:34:35;19.40;80.90
47773;DHT22;33534;51.028;13.716;2024-03-02T05:37:01;19.40;80.90
47773;DHT22;33534;51.028;13.716;2024-03-02T05:39:27;19.40;81.00
47773;DHT22;33534;51.028;13.716;2024-03-02T05:41:52;19.40;80.90
47773;DHT22;33534;51.028;13.716;2024-03-02T05:44:18;19.40;81.00
47773;DHT22;33534;51.028;13.716;2024-03-02T05:46:45;19.40;81.00
47773;DHT22;33534;51.028;13.716;2024-03-02T05:49:10;19.40;80.90
47773;DHT22;33534;51.028;13.716;2024-03-02T05:51:36;19.40;81.00
47773;DHT22;33534;51.028;13.716;2024-03-02T05:54:02;19.40;80.90
47773;DHT22;33534;51.028;13.716;2024-03-02T05:56:28;19.40;80.80
47773;DHT22;33534;51.028;13.716;2024-03-02T05:58:53;19.50;80.30
47773;DHT22;33534;51.028;13.716;2024-03-02T06:01:48;19.50;80.50
47773;DHT22;33534;51.028;13.716;2024-03-02T06:04:16;19.00;69.00
47773;DHT22;33534;51.028;13.716;2024-03-02T06:48:17;16.80;79.10
47773;DHT22;33534;51.028;13.716;2024-03-02T06:50:48;16.90;79.20
47773;DHT22;33534;51.028;13.716;2024-03-02T06:53:14;17.00;79.20
47773;DHT22;33534;51.028;13.716;2024-03-02T06:55:46;17.20;79.20
47773;DHT22;33534;51.028;13.716;2024-03-02T06:58:13;17.20;79.20
47773;DHT22;33534;51.028;13.716;2024-03-02T07:00:40;17.40;79.20
47773;DHT22;33534;51.028;13.716;2024-03-02T07:03:06;17.50;79.10
47773;DHT22;33534;51.028;13.716;2024-03-02T07:05:31;17.60;79.10
47773;DHT22;33534;51.028;13.716;2024-03-02T07:07:57;17.70;79.10
47773;DHT22;33534;51.028;13.716;2024-03-02T07:10:23;17.70;79.10
47773;DHT22;33534;51.028;13.716;2024-03-02T07:12:48;17.80;79.20
47773;DHT22;33534;51.028;13.716;2024-03-02T07:15:14;17.90;79.20
47773;DHT22;33534;51.028;13.716;2024-03-02T07:17:58;18.00;79.10
47773;DHT22;33534;51.028;13.716;2024-03-02T07:20:23;18.00;79.00
47773;DHT22;33534;51.028;13.716;2024-03-02T07:22:49;18.00;78.80
47773;DHT22;33534;51.028;13.716;2024-03-02T07:25:15;18.00;78.70
47773;DHT22;33534;51.028;13.716;2024-03-02T07:27:40;18.10;78.60
47773;DHT22;33534;51.028;13.716;2024-03-02T07:30:07;18.20;78.50
47773;DHT22;33534;51.028;13.716;2024-03-02T07:32:32;18.20;78.40
47773;DHT22;33534;51.028;13.716;2024-03-02T07:34:58;18.20;78.30
47773;DHT22;33534;51.028;13.716;2024-03-02T07:37:24;18.30;78.30
47773;DHT22;33534;51.028;13.716;2024-03-02T07:39:50;18.30;78.20
47773;DHT22;33534;51.028;13.716;2024-03-02T07:42:16;18.30;78.10
47773;DHT22;33534;51.028;13.716;2024-03-02T07:44:44;18.40;77.90
47773;DHT22;33534;51.028;13.716;2024-03-02T07:47:09;18.40;77.80
47773;DHT22;33534;51.028;13.716;2024-03-02T07:49:35;18.40;77.80
47773;DHT22;33534;51.028;13.716;2024-03-02T07:52:01;18.40;77.70
47773;DHT22;33534;51.028;13.716;2024-03-02T07:54:26;18.50;77.60
47773;DHT22;33534;51.028;13.716;2024-03-02T07:56:52;18.50;77.50
47773;DHT22;33534;51.028;13.716;2024-03-02T07:59:18;18.50;77.50
47773;DHT22;33534;51.028;13.716;2024-03-02T08:01:43;18.50;77.40
47773;DHT22;33534;51.028;13.716;2024-03-02T08:04:09;18.50;77.30
47773;DHT22;33534;51.028;13.716;2024-03-02T08:06:34;18.50;77.30
47773;DHT22;33534;51.028;13.716;2024-03-02T08:09:01;18.50;77.20
47773;DHT22;33534;51.028;13.716;2024-03-02T08:11:27;18.50;77.10
47773;DHT22;33534;51.028;13.716;2024-03-02T08:13:53;18.50;77.10
47773;DHT22;33534;51.028;13.716;2024-03-02T08:16:21;18.50;77.00
47773;DHT22;33534;51.028;13.716;2024-03-02T08:18:49;18.50;77.00
47773;DHT22;33534;51.028;13.716;2024-03-02T08:21:17;18.50;77.00
47773;DHT22;33534;51.028;13.716;2024-03-02T08:23:43;18.50;76.90
47773;DHT22;33534;51.028;13.716;2024-03-02T08:26:10;18.60;76.90
47773;DHT22;33534;51.028;13.716;2024-03-02T08:28:36;18.50;76.90
47773;DHT22;33534;51.028;13.716;2024-03-02T08:31:03;18.50;76.80
47773;DHT22;33534;51.028;13.716;2024-03-02T08:33:28;18.60;76.80
47773;DHT22;33534;51.028;13.716;2024-03-02T08:35:54;18.60;76.70
47773;DHT22;33534;51.028;13.716;2024-03-02T08:38:20;18.60;76.70
47773;DHT22;33534;51.028;13.716;2024-03-02T08:40:45;18.60;76.60
47773;DHT22;33534;51.028;13.716;2024-03-02T08:43:11;18.60;76.70
47773;DHT22;33534;51.028;13.716;2024-03-02T08:45:37;18.60;76.60
47773;DHT22;33534;51.028;13.716;2024-03-02T08:48:06;18.60;76.60
47773;DHT22;33534;51.028;13.716;2024-03-02T08:50:32;18.50;76.50
47773;DHT22;33534;51.028;13.716;2024-03-02T08:52:58;18.60;76.50
47773;DHT22;33534;51.028;13.716;2024-03-02T08:55:23;18.60;76.50
47773;DHT22;33534;51.028;13.716;2024-03-02T08:57:49;18.60;76.40
47773;DHT22;33534;51.028;13.716;2024-03-02T09:00:16;18.60;76.50
47773;DHT22;33534;51.028;13.716;2024-03-02T09:02:44;18.60;76.50
47773;DHT22;33534;51.028;13.716;2024-03-02T09:05:09;18.60;76.50
47773;DHT22;33534;51.028;13.716;2024-03-02T09:07:35;18.60;76.50
47773;DHT22;33534;51.028;13.716;2024-03-02T09:10:01;18.60;76.50
47773;DHT22;33534;51.028;13.716;2024-03-02T09:12:26;18.60;76.70
47773;DHT22;33534;51.028;13.716;2024-03-02T09:14:52;18.60;77.10
47773;DHT22;33534;51.028;13.716;2024-03-02T09:17:17;18.60;77.30
47773;DHT22;33534;51.028;13.716;2024-03-02T09:19:43;18.60;77.40
47773;DHT22;33534;51.028;13.716;2024-03-02T09:22:09;18.60;77.50
47773;DHT22;33534;51.028;13.716;2024-03-02T09:24:35;18.60;77.60
47773;DHT22;33534;51.028;13.716;2024-03-02T09:27:00;18.60;77.80
47773;DHT22;33534;51.028;13.716;2024-03-02T09:29:26;18.60;78.00
47773;DHT22;33534;51.028;13.716;2024-03-02T09:31:51;18.70;78.10
47773;DHT22;33534;51.028;13.716;2024-03-02T09:34:17;18.60;78.10
47773;DHT22;33534;51.028;13.716;2024-03-02T09:36:43;18.70;78.10
47773;DHT22;33534;51.028;13.716;2024-03-02T09:39:09;18.70;78.20
47773;DHT22;33534;51.028;13.716;2024-03-02T09:41:38;18.70;78.10
47773;DHT22;33534;51.028;13.716;2024-03-02T09:44:04;18.70;78.20
47773;DHT22;33534;51.028;13.716;2024-03-02T09:46:31;18.70;78.30
47773;DHT22;33534;51.028;13.716;2024-03-02T09:48:56;18.70;78.40
47773;DHT22;33534;51.028;13.716;2024-03-02T09:51:23;18.70;78.50
47773;DHT22;33534;51.028;13.716;2024-03-02T09:53:49;18.70;78.70
47773;DHT22;33534;51.028;13.716;2024-03-02T09:56:15;18.80;78.90
47773;DHT22;33534;51.028;13.716;2024-03-02T09:58:41;18.80;78.90
47773;DHT22;33534;51.028;13.716;2024-03-02T10:01:07;18.80;78.90
47773;DHT22;33534;51.028;13.716;2024-03-02T10:03:36;18.90;79.00
47773;DHT22;33534;51.028;13.716;2024-03-02T10:08:46;18.90;78.70
47773;DHT22;33534;51.028;13.716;2024-03-02T10:11:30;18.90;78.60
47773;DHT22;33534;51.028;13.716;2024-03-02T10:16:38;19.00;78.30
47773;DHT22;33534;51.028;13.716;2024-03-02T10:19:23;19.00;78.30
47773;DHT22;33534;51.028;13.716;2024-03-02T10:21:50;18.90;78.40
47773;DHT22;33534;51.028;13.716;2024-03-02T10:24:17;19.00;78.70
47773;DHT22;33534;51.028;13.716;2024-03-02T10:26:43;19.00;78.70
47773;DHT22;33534;51.028;13.716;2024-03-02T10:29:09;19.00;78.90
47773;DHT22;33534;51.028;13.716;2024-03-02T10:31:40;19.00;79.10
47773;DHT22;33534;51.028;13.716;2024-03-02T10:34:07;19.00;79.00
47773;DHT22;33534;51.028;13.716;2024-03-02T10:36:37;19.00;78.90
47773;DHT22;33534;51.028;13.716;2024-03-02T10:39:03;19.00;78.90
47773;DHT22;33534;51.028;13.716;2024-03-02T10:41:33;19.00;78.80
47773;DHT22;33534;51.028;13.716;2024-03-02T10:44:05;19.00;78.70
47773;DHT22;33534;51.028;13.716;2024-03-02T10:46:32;19.00;78.70
47773;DHT22;33534;51.028;13.716;2024-03-02T10:48:59;19.00;78.80
47773;DHT22;33534;51.028;13.716;2024-03-02T10:51:29;19.00;78.90
47773;DHT22;33534;51.028;13.716;2024-03-02T10:53:57;19.00;78.90
47773;DHT22;33534;51.028;13.716;2024-03-02T10:56:28;19.00;78.90
47773;DHT22;33534;51.028;13.716;2024-03-02T11:01:43;19.00;79.30
47773;DHT22;33534;51.028;13.716;2024-03-02T11:04:09;19.00;79.80
47773;DHT22;33534;51.028;13.716;2024-03-02T11:06:38;19.00;80.00
47773;DHT22;33534;51.028;13.716;2024-03-02T11:09:07;19.00;80.30
47773;DHT22;33534;51.028;13.716;2024-03-02T11:11:41;19.00;80.30
47773;DHT22;33534;51.028;13.716;2024-03-02T11:14:14;19.00;80.30
47773;DHT22;33534;51.028;13.716;2024-03-02T11:16:42;19.00;80.20
47773;DHT22;33534;51.028;13.716;2024-03-02T11:19:13;19.10;80.10
47773;DHT22;33534;51.028;13.716;2024-03-02T11:21:39;19.00;80.00
47773;DHT22;33534;51.028;13.716;2024-03-02T11:26:49;19.00;79.80
47773;DHT22;33534;51.028;13.716;2024-03-02T11:32:03;19.00;79.90
47773;DHT22;33534;51.028;13.716;2024-03-02T11:34:33;19.00;79.80
47773;DHT22;33534;51.028;13.716;2024-03-02T11:37:01;19.10;79.80
47773;DHT22;33534;51.028;13.716;2024-03-02T11:39:30;19.10;79.70
47773;DHT22;33534;51.028;13.716;2024-03-02T11:41:57;19.10;79.80
47773;DHT22;33534;51.028;13.716;2024-03-02T11:44:29;19.10;79.90
47773;DHT22;33534;51.028;13.716;2024-03-02T11:47:02;19.10;79.90
47773;DHT22;33534;51.028;13.716;2024-03-02T11:49:50;19.10;79.90
47773;DHT22;33534;51.028;13.716;2024-03-02T11:52:17;19.10;79.70
47773;DHT22;33534;51.028;13.716;2024-03-02T11:54:47;19.10;79.50
47773;DHT22;33534;51.028;13.716;2024-03-02T11:57:20;19.10;79.60
47773;DHT22;33534;51.028;13.716;2024-03-02T11:59:48;19.10;79.50
47773;DHT22;33534;51.028;13.716;2024-03-02T12:02:19;19.10;79.40
47773;DHT22;33534;51.028;13.716;2024-03-02T12:04:46;19.10;79.30
47773;DHT22;33534;51.028;13.716;2024-03-02T12:07:19;19.00;79.10
47773;DHT22;33534;51.028;13.716;2024-03-02T12:09:46;19.10;79.10
47773;DHT22;33534;51.028;13.716;2024-03-02T12:12:12;19.10;79.10
47773;DHT22;33534;51.028;13.716;2024-03-02T12:14:50;19.10;79.10
47773;DHT22;33534;51.028;13.716;2024-03-02T12:17:16;19.00;79.00
47773;DHT22;33534;51.028;13.716;2024-03-02T12:19:42;19.00;79.20
47773;DHT22;33534;51.028;13.716;2024-03-02T12:22:07;19.00;79.10
47773;DHT22;33534;51.028;13.716;2024-03-02T12:24:33;19.00;79.10
47773;DHT22;33534;51.028;13.716;2024-03-02T12:26:58;19.00;79.20
47773;DHT22;33534;51.028;13.716;2024-03-02T12:29:24;19.00;79.10
47773;DHT22;33534;51.028;13.716;2024-03-02T12:31:51;19.00;79.10
47773;DHT22;33534;51.028;13.716;2024-03-02T12:34:21;19.00;79.00
47773;DHT22;33534;51.028;13.716;2024-03-02T12:36:47;19.10;79.00
47773;DHT22;33534;51.028;13.716;2024-03-02T12:39:18;19.10;78.90
47773;DHT22;33534;51.028;13.716;2024-03-02T12:41:44;19.10;78.90
47773;DHT22;33534;51.028;13.716;2024-03-02T12:44:10;19.10;78.80
47773;DHT22;33534;51.028;13.716;2024-03-02T12:46:36;19.10;78.70
47773;DHT22;33534;51.028;13.716;2024-03-02T12:49:15;19.20;78.70
47773;DHT22;33534;51.028;13.716;2024-03-02T12:51:43;19.20;78.60
47773;DHT22;33534;51.028;13.716;2024-03-02T12:54:12;19.20;78.60
47773;DHT22;33534;51.028;13.716;2024-03-02T12:56:38;19.20;78.50
47773;DHT22;33534;51.028;13.716;2024-03-02T12:59:04;19.20;78.50
47773;DHT22;33534;51.028;13.716;2024-03-02T13:01:31;19.20;78.50
47773;DHT22;33534;51.028;13.716;2024-03-02T13:03:58;19.20;78.40
47773;DHT22;33534;51.028;13.716;2024-03-02T13:06:25;19.20;78.30
47773;DHT22;33534;51.028;13.716;2024-03-02T13:08:53;19.20;78.30
47773;DHT22;33534;51.028;13.716;2024-03-02T13:11:20;19.20;78.20
47773;DHT22;33534;51.028;13.716;2024-03-02T13:13:46;19.20;78.20
47773;DHT22;33534;51.028;13.716;2024-03-02T13:16:12;19.20;78.10
47773;DHT22;33534;51.028;13.716;2024-03-02T13:18:41;19.20;78.00
47773;DHT22;33534;51.028;13.716;2024-03-02T13:21:10;19.20;77.90
47773;DHT22;33534;51.028;13.716;2024-03-02T13:23:35;19.20;77.90
47773;DHT22;33534;51.028;13.716;2024-03-02T13:26:01;19.20;78.00
47773;DHT22;33534;51.028;13.716;2024-03-02T13:28:27;19.20;77.90
47773;DHT22;33534;51.028;13.716;2024-03-02T13:30:53;19.20;77.70
47773;DHT22;33534;51.028;13.716;2024-03-02T13:33:19;19.20;77.80
47773;DHT22;33534;51.028;13.716;2024-03-02T13:35:51;19.20;78.10
47773;DHT22;33534;51.028;13.716;2024-03-02T13:38:18;19.20;78.50
47773;DHT22;33534;51.028;13.716;2024-03-02T13:40:44;19.20;79.20
47773;DHT22;33534;51.028;13.716;2024-03-02T13:43:11;19.20;79.60
47773;DHT22;33534;51.028;13.716;2024-03-02T13:45:37;19.20;79.50
47773;DHT22;33534;51.028;13.716;2024-03-02T13:48:03;19.20;79.40
47773;DHT22;33534;51.028;13.716;2024-03-02T13:50:29;19.20;79.30
47773;DHT22;33534;51.028;13.716;2024-03-02T13:52:55;19.20;79.20
47773;DHT22;33534;51.028;13.716;2024-03-02T13:55:22;19.20;80.00
47773;DHT22;33534;51.028;13.716;2024-03-02T13:57:47;19.20;79.80
47773;DHT22;33534;51.028;13.716;2024-03-02T14:00:15;19.20;79.60
47773;DHT22;33534;51.028;13.716;2024-03-02T14:02:41;19.20;79.40
47773;DHT22;33534;51.028;13.716;2024-03-02T14:05:07;19.20;79.20
47773;DHT22;33534;51.028;13.716;2024-03-02T14:07:37;19.20;79.10
47773;DHT22;33534;51.028;13.716;2024-03-02T14:10:03;19.20;78.90
47773;DHT22;33534;51.028;13.716;2024-03-02T14:12:29;19.20;78.80
47773;DHT22;33534;51.028;13.716;2024-03-02T14:14:56;19.20;78.70
47773;DHT22;33534;51.028;13.716;2024-03-02T14:17:24;19.20;78.60
47773;DHT22;33534;51.028;13.716;2024-03-02T14:19:50;19.20;78.60
47773;DHT22;33534;51.028;13.716;2024-03-02T14:22:16;19.20;78.60
47773;DHT22;33534;51.028;13.716;2024-03-02T14:24:43;19.20;78.80
47773;DHT22;33534;51.028;13.716;2024-03-02T14:27:09;19.20;79.40
47773;DHT22;33534;51.028;13.716;2024-03-02T14:29:34;19.20;79.70
47773;DHT22;33534;51.028;13.716;2024-03-02T14:32:03;19.10;79.90
47773;DHT22;33534;51.028;13.716;2024-03-02T14:34:29;19.10;79.70
47773;DHT22;33534;51.028;13.716;2024-03-02T14:36:55;19.10;79.30
47773;DHT22;33534;51.028;13.716;2024-03-02T14:39:20;19.10;79.40
47773;DHT22;33534;51.028;13.716;2024-03-02T14:41:46;19.20;79.30
47773;DHT22;33534;51.028;13.716;2024-03-02T14:44:12;19.10;79.40
47773;DHT22;33534;51.028;13.716;2024-03-02T14:46:38;19.20;79.50
47773;DHT22;33534;51.028;13.716;2024-03-02T14:49:04;19.20;79.40
47773;DHT22;33534;51.028;13.716;2024-03-02T14:51:30;19.20;79.50
47773;DHT22;33534;51.028;13.716;2024-03-02T14:53:56;19.20;79.50
47773;DHT22;33534;51.028;13.716;2024-03-02T14:56:21;19.20;79.30
47773;DHT22;33534;51.028;13.716;2024-03-02T14:58:47;19.20;79.20
47773;DHT22;33534;51.028;13.716;2024-03-02T15:01:13;19.30;79.00
47773;DHT22;33534;51.028;13.716;2024-03-02T15:03:40;19.30;79.00
47773;DHT22;33534;51.028;13.716;2024-03-02T15:06:05;19.30;79.00
47773;DHT22;33534;51.028;13.716;2024-03-02T15:08:32;19.30;79.00
47773;DHT22;33534;51.028;13.716;2024-03-02T15:10:58;19.30;78.90
47773;DHT22;33534;51.028;13.716;2024-03-02T15:13:25;19.30;78.60
47773;DHT22;33534;51.028;13.716;2024-03-02T15:15:52;19.30;78.40
47773;DHT22;33534;51.028;13.716;2024-03-02T15:18:18;19.30;78.20
47773;DHT22;33534;51.028;13.716;2024-03-02T15:20:44;19.30;78.10
47773;DHT22;33534;51.028;13.716;2024-03-02T15:23:09;19.30;78.00
47773;DHT22;33534;51.028;13.716;2024-03-02T15:25:35;19.30;78.00
47773;DHT22;33534;51.028;13.716;2024-03-02T15:28:01;19.30;77.90
47773;DHT22;33534;51.028;13.716;2024-03-02T15:30:27;19.30;77.90
47773;DHT22;33534;51.028;13.716;2024-03-02T15:32:53;19.30;77.80
47773;DHT22;33534;51.028;13.716;2024-03-02T15:35:18;19.30;77.80
47773;DHT22;33534;51.028;13.716;2024-03-02T15:37:44;19.30;77.70
47773;DHT22;33534;51.028;13.716;2024-03-02T15:40:09;19.20;77.70
47773;DHT22;33534;51.028;13.716;2024-03-02T15:42:36;19.30;77.70
47773;DHT22;33534;51.028;13.716;2024-03-02T15:45:02;19.30;77.60
47773;DHT22;33534;51.028;13.716;2024-03-02T15:47:28;19.30;77.60
47773;DHT22;33534;51.028;13.716;2024-03-02T15:49:54;19.30;77.60
47773;DHT22;33534;51.028;13.716;2024-03-02T15:52:20;19.30;77.60
47773;DHT22;33534;51.028;13.716;2024-03-02T15:54:50;19.30;77.50
47773;DHT22;33534;51.028;13.716;2024-03-02T15:57:16;19.20;77.50
47773;DHT22;33534;51.028;13.716;2024-03-02T15:59:45;19.20;77.50
47773;DHT22;33534;51.028;13.716;2024-03-02T16:02:11;19.20;77.50
47773;DHT22;33534;51.028;13.716;2024-03-02T16:04:37;19.20;77.50
47773;DHT22;33534;51.028;13.716;2024-03-02T16:07:02;19.20;77.40